Weather reports worldwide

Advertisment
Uccle, Belgium (6447): temperature & dewpoint: 10.09.2019 05:00:00 - 16.09.2019 05:00:00 (CEST)Uccle, Belgium (6447): wind speed & gusts: 10.09.2019 05:00:00 - 16.09.2019 05:00:00 (CEST)Uccle, Belgium (6447): wind direction: 10.09.2019 05:00:00 - 16.09.2019 05:00:00 (CEST)Uccle, Belgium (6447): reduced air pressure: 10.09.2019 05:00:00 - 16.09.2019 05:00:00 (CEST)Uccle, Belgium (6447): sunshine duration: 10.09.2019 05:00:00 - 16.09.2019 05:00:00 (CEST)Uccle, Belgium (6447): precipitation: 10.09.2019 05:00:00 - 16.09.2019 05:00:00 (CEST)
Date & Time tt [°C] td [°C] ff [km/h] ff [kn] fx [km/h] fx [kn] dd ppp [hPa] sd [min] rr [mm]
16.09.2019 05:00:00 - - - - - - - - - -
16.09.2019 04:00:00 14,1 14,1 5 3 7 4 W 1021,4 0 0,0
16.09.2019 03:00:00 14,5 14,5 4 2 14 8 WNW 1021,5 0 0,0
16.09.2019 02:00:00 14,7 14,7 7 4 11 6 SE 1021,5 0 0,0
16.09.2019 01:00:00 14,7 14,7 7 4 10 5 ESE 1022,1 0 0,0
16.09.2019 00:00:00 15,0 15,0 5 3 9 5 ESE 1022,3 0 0,0
15.09.2019 23:00:00 16,3 16,3 7 4 13 7 NNE 1022,5 0 0,0
15.09.2019 22:00:00 17,5 12,2 6 4 27 15 NNE 1022,6 0 0,0
15.09.2019 21:00:00 19,2 9,2 14 8 22 12 N 1022,4 0 0,0
15.09.2019 20:00:00 19,8 6,9 7 4 16 8 WNW 1021,8 24 0,0
15.09.2019 19:00:00 22,7 6,1 9 5 18 10 NW 1021,8 60 0,0
15.09.2019 18:00:00 23,6 7,4 9 5 23 12 WNW 1021,8 60 0,0
15.09.2019 17:00:00 23,8 9,0 9 5 24 13 W 1022,4 60 0,0
15.09.2019 16:00:00 23,5 7,8 10 5 21 11 W 1022,7 60 0,0
15.09.2019 15:00:00 23,1 9,8 8 4 21 12 W 1023,3 60 0,0
15.09.2019 14:00:00 21,7 11,7 7 4 22 12 W 1023,9 60 0,0
15.09.2019 13:00:00 21,0 10,8 14 7 24 13 W 1024,5 60 0,0
15.09.2019 12:00:00 20,2 11,4 9 5 20 11 WSW 1024,6 60 0,0
15.09.2019 11:00:00 18,3 18,3 7 4 16 9 W 1024,7 60 0,0
15.09.2019 10:00:00 16,2 16,2 5 3 10 6 SW 1024,5 60 0,0
15.09.2019 09:00:00 12,5 12,5 6 4 10 5 SSW 1024,4 60 0,0
15.09.2019 08:00:00 10,1 10,1 7 4 9 5 SW 1024,8 8 0,0
15.09.2019 07:00:00 9,9 9,9 6 3 8 5 SW 1025,0 0 0,0
15.09.2019 06:00:00 10,0 10,0 7 4 9 5 SW 1025,0 0 0,0
15.09.2019 05:00:00 10,2 10,2 5 3 7 4 WSW 1025,3 0 0,0
15.09.2019 04:00:00 10,5 10,5 5 3 8 5 W 1025,7 0 0,0
15.09.2019 03:00:00 11,5 11,5 8 4 10 5 SSW 1025,9 0 0,0
15.09.2019 02:00:00 11,9 7,6 4 2 10 5 S 1026,2 0 0,0
15.09.2019 01:00:00 12,2 8,1 5 3 9 5 ESE 1026,6 0 0,0
15.09.2019 00:00:00 12,7 12,7 5 3 13 7 E 1027,2 0 0,0
14.09.2019 23:00:00 14,0 12,4 8 4 14 7 ENE 1027,9 0 0,0
14.09.2019 22:00:00 15,0 9,4 10 5 14 8 NE 1028,1 0 0,0
14.09.2019 21:00:00 16,3 8,8 7 4 11 6 ENE 1028,2 0 0,0
14.09.2019 20:00:00 18,5 8,6 7 4 12 6 ENE 1028,2 25 0,0
14.09.2019 19:00:00 20,7 8,4 5 3 12 7 NE 1028,5 39 0,0
14.09.2019 18:00:00 22,1 7,9 8 5 18 10 ENE 1028,5 60 0,0
14.09.2019 17:00:00 22,3 7,4 10 5 18 10 NE 1028,9 60 0,0
14.09.2019 16:00:00 22,3 9,2 7 4 18 10 E 1029,7 60 0,0
14.09.2019 15:00:00 21,6 10,1 7 4 18 10 SE 1030,5 60 0,0
14.09.2019 14:00:00 20,3 10,3 7 4 18 10 E 1031,3 60 0,0
14.09.2019 13:00:00 19,2 11,1 10 5 18 10 NE 1032,1 60 0,0
14.09.2019 12:00:00 18,7 18,7 7 4 20 11 E 1032,5 60 0,0
14.09.2019 11:00:00 16,7 16,7 8 4 18 10 ENE 1033,1 60 0,0
14.09.2019 10:00:00 14,5 14,5 7 4 20 11 E 1033,0 60 0,0
14.09.2019 09:00:00 12,4 12,4 7 4 17 9 E 1033,1 60 0,0
14.09.2019 08:00:00 11,4 11,4 11 6 17 9 ENE 1032,8 13 0,0
14.09.2019 07:00:00 11,7 11,7 11 6 18 10 ENE 1032,8 0 0,0
14.09.2019 06:00:00 12,3 12,3 10 6 20 11 NE 1033,2 0 0,0
14.09.2019 05:00:00 12,8 12,8 11 6 19 10 NE 1033,1 0 0,0
14.09.2019 04:00:00 13,0 13,0 8 4 19 10 NE 1032,9 0 0,0
14.09.2019 03:00:00 13,7 13,7 10 6 22 12 NE 1033,4 0 0,0
14.09.2019 02:00:00 14,5 14,5 7 4 21 12 N 1033,9 0 0,0
14.09.2019 01:00:00 14,8 14,8 11 6 22 12 NNE 1033,8 0 0,0
14.09.2019 00:00:00 15,3 15,3 12 6 25 14 NNE 1033,8 0 0,0
13.09.2019 23:00:00 16,1 15,9 10 5 29 16 N 1033,8 0 0,0
13.09.2019 22:00:00 17,1 13,0 15 8 26 14 N 1033,5 0 0,0
13.09.2019 21:00:00 17,9 12,9 12 7 29 16 N 1033,5 0 0,0
13.09.2019 20:00:00 18,7 12,7 14 8 29 15 N 1032,9 3 0,0
13.09.2019 19:00:00 19,9 12,9 16 9 27 15 NNW 1032,4 18 0,0
13.09.2019 18:00:00 21,4 18,6 14 8 24 13 NNW 1032,2 47 0,0
13.09.2019 17:00:00 21,0 21,0 10 5 25 13 N 1032,2 23 0,0
13.09.2019 16:00:00 21,2 21,2 11 6 24 13 NNW 1032,2 18 0,0
13.09.2019 15:00:00 20,6 20,6 12 7 23 13 N 1032,3 15 0,1
13.09.2019 14:00:00 20,1 20,1 7 4 14 7 WSW 1032,3 9 0,0
13.09.2019 13:00:00 19,3 19,3 5 3 12 6 SW 1032,2 0 0,0
13.09.2019 12:00:00 18,2 18,2 6 4 14 8 WSW 1032,5 0 0,0
13.09.2019 11:00:00 17,2 17,2 5 3 13 7 SW 1032,2 0 0,0
13.09.2019 10:00:00 16,7 16,7 6 4 13 7 WSW 1031,8 0 0,0
13.09.2019 09:00:00 16,6 16,6 7 4 16 9 WSW 1031,2 0 0,0
13.09.2019 08:00:00 16,7 16,7 7 4 19 10 WSW 1030,7 0 0,0
13.09.2019 07:00:00 16,8 16,8 6 3 19 11 WSW 1030,2 0 0,0
13.09.2019 06:00:00 16,8 16,8 8 5 18 10 WSW 1029,8 0 0,0
13.09.2019 05:00:00 16,9 16,9 8 5 20 11 SW 1029,6 0 0,0
13.09.2019 04:00:00 16,9 16,9 11 6 22 12 WSW 1029,6 0 0,0
13.09.2019 03:00:00 17,1 17,1 9 5 27 15 WSW 1029,7 0 0,0
13.09.2019 02:00:00 17,3 17,3 11 6 28 15 WSW 1029,5 0 0,0
13.09.2019 01:00:00 17,7 17,7 14 8 28 15 WSW 1029,5 0 0,0
13.09.2019 00:00:00 17,6 17,6 13 7 39 21 WSW 1029,8 0 0,0
12.09.2019 23:00:00 18,5 18,5 21 11 43 23 WSW 1029,4 0 0,0
12.09.2019 22:00:00 19,3 19,3 13 7 29 16 SW 1029,1 0 0,0
12.09.2019 21:00:00 19,4 19,4 11 6 22 12 SW 1029,1 0 0,0
12.09.2019 20:00:00 20,3 15,8 11 6 29 16 WSW 1029,0 24 0,0
12.09.2019 19:00:00 21,7 15,0 12 7 34 18 WSW 1028,7 9 0,0
12.09.2019 18:00:00 22,3 14,5 16 8 33 18 W 1028,4 17 0,0
12.09.2019 17:00:00 22,6 13,3 14 7 36 19 W 1028,3 30 0,0
12.09.2019 16:00:00 23,3 13,4 13 7 34 18 WSW 1028,3 60 0,0
12.09.2019 15:00:00 22,3 12,9 17 9 35 19 W 1028,4 60 0,0
12.09.2019 14:00:00 21,3 21,3 18 10 33 18 W 1028,6 50 0,0
12.09.2019 13:00:00 20,2 20,2 16 9 35 19 WSW 1028,5 41 0,0
12.09.2019 12:00:00 19,3 19,3 13 7 31 17 WSW 1028,3 18 0,0
12.09.2019 11:00:00 18,8 18,8 11 6 29 15 WSW 1028,0 40 0,0
12.09.2019 10:00:00 17,4 17,4 10 6 21 12 SW 1027,4 1 0,0
12.09.2019 09:00:00 16,7 16,7 9 5 16 9 SW 1026,6 0 0,0
12.09.2019 08:00:00 16,1 16,1 4 2 19 10 SW 1026,2 0 0,2
12.09.2019 07:00:00 16,5 16,5 11 6 24 13 WNW 1025,7 0 1,5
12.09.2019 06:00:00 16,8 16,8 9 5 17 9 SW 1025,3 0 0,0
12.09.2019 05:00:00 16,7 16,7 9 5 16 9 SW 1025,1 0 0,0
12.09.2019 04:00:00 16,7 16,7 7 4 18 10 SW 1024,9 0 0,0
12.09.2019 03:00:00 16,7 16,7 9 5 19 10 SW 1024,7 0 0,0
12.09.2019 02:00:00 16,6 16,6 7 4 24 13 SW 1024,3 0 0,2
12.09.2019 01:00:00 16,6 16,6 9 5 24 13 SW 1024,0 0 0,0
12.09.2019 00:00:00 16,5 16,5 11 6 28 15 SW 1023,9 0 0,0
11.09.2019 23:00:00 16,6 16,6 12 7 29 16 SW 1023,6 0 0,0
11.09.2019 22:00:00 16,7 16,7 12 7 27 15 SW 1023,4 0 0,0
11.09.2019 21:00:00 16,8 16,8 9 5 35 19 SW 1022,9 0 0,1
11.09.2019 20:00:00 18,1 18,1 14 8 26 14 WSW 1022,3 0 0,0
11.09.2019 19:00:00 18,5 18,5 13 7 32 18 SW 1021,9 0 0,0
11.09.2019 18:00:00 18,3 18,3 18 10 43 23 SW 1022,0 0 0,0
11.09.2019 17:00:00 18,1 18,1 17 9 37 20 SW 1022,0 0 0,0
11.09.2019 16:00:00 17,5 17,5 18 10 45 24 SW 1021,9 0 0,0
11.09.2019 15:00:00 17,2 17,2 19 10 45 24 SW 1022,0 0 0,0
11.09.2019 14:00:00 16,3 16,3 14 8 37 20 SSW 1022,0 0 0,1
11.09.2019 13:00:00 15,0 15,0 17 9 33 18 SSW 1022,0 0 0,2
11.09.2019 12:00:00 14,7 14,7 13 7 21 11 S 1022,1 0 0,5
11.09.2019 11:00:00 14,2 14,2 12 6 22 12 SSW 1022,4 0 0,4
11.09.2019 10:00:00 14,1 14,1 12 7 27 14 SW 1021,9 0 0,3
11.09.2019 09:00:00 13,9 13,9 9 5 15 8 SSW 1021,7 0 0,0
11.09.2019 08:00:00 13,0 13,0 7 4 15 8 S 1021,3 0 0,0
11.09.2019 07:00:00 12,9 12,9 7 4 12 6 S 1020,9 0 0,0
11.09.2019 06:00:00 12,7 12,7 7 4 10 6 SW 1020,8 0 0,0
11.09.2019 05:00:00 12,6 12,6 5 3 8 5 WSW 1021,1 0 0,0
11.09.2019 04:00:00 12,5 12,5 6 3 8 4 SSW 1021,0 0 0,0
11.09.2019 03:00:00 13,2 13,2 4 2 7 4 SW 1021,0 0 0,0
11.09.2019 02:00:00 13,3 13,3 4 2 8 5 WSW 1021,1 0 0,0
11.09.2019 01:00:00 12,9 12,2 4 2 6 4 SSW 1020,9 0 0,0
11.09.2019 00:00:00 14,6 9,2 4 2 6 3 SW 1020,7 0 0,0
10.09.2019 23:00:00 15,8 9,0 4 2 11 6 NNW 1020,7 0 0,0
10.09.2019 22:00:00 16,4 9,6 5 3 17 9 NNW 1020,6 0 0,0
10.09.2019 21:00:00 16,7 9,8 9 5 20 11 NNW 1019,9 0 0,0
10.09.2019 20:00:00 18,0 8,4 13 7 20 11 NNW 1019,2 2 0,0
10.09.2019 19:00:00 19,0 7,3 13 7 24 13 NW 1018,9 36 0,0
10.09.2019 18:00:00 20,2 6,1 12 6 23 12 WSW 1018,4 56 0,0
10.09.2019 17:00:00 19,5 6,2 9 5 19 10 W 1018,2 43 0,0
10.09.2019 16:00:00 20,8 6,5 9 5 22 12 NW 1018,3 59 0,0
10.09.2019 15:00:00 19,9 5,7 10 5 21 12 WNW 1018,1 60 0,0
10.09.2019 14:00:00 19,6 6,5 7 4 19 11 WSW 1018,1 60 0,0
10.09.2019 13:00:00 19,5 6,0 9 5 18 10 SSW 1017,8 57 0,0
10.09.2019 12:00:00 18,4 6,3 6 3 10 5 SE 1017,8 60 0,0
10.09.2019 11:00:00 - - - - - - - - - -
10.09.2019 10:00:00 15,4 8,2 4 2 7 4 SSW 1017,2 60 0,0
10.09.2019 09:00:00 11,9 10,8 4 2 10 5 SSE 1016,5 60 0,0
10.09.2019 08:00:00 9,6 8,4 7 4 10 5 SE 1016,1 1 0,0
10.09.2019 07:00:00 9,7 5,8 5 3 9 5 ESE 1015,5 0 0,0
10.09.2019 06:00:00 10,9 6,2 6 4 9 5 ESE 1015,3 0 0,0
10.09.2019 05:00:00 10,9 6,8 5 3 10 5 ESE 1015,1 0 0,0

tt = temperature
td = dewpoint
ff = wind speed
fx = gusts
dd = wind direction
ppp = reduced air pressure
sd = sunshine duration
rr = precipitation

Next stations